createdAt,value
2023-05-25T00:01:11.925Z,99477.59
2023-05-25T00:03:40.665Z,99483.61
2023-05-25T00:06:08.301Z,99487.00
2023-05-25T00:08:35.808Z,99486.16
2023-05-25T00:11:03.235Z,99487.63
2023-05-25T00:13:31.215Z,99488.15
2023-05-25T00:15:58.780Z,99490.90
2023-05-25T00:18:27.370Z,99492.31
2023-05-25T00:20:54.788Z,99494.20
2023-05-25T00:23:22.395Z,99493.19
2023-05-25T00:25:49.791Z,99495.03
2023-05-25T00:28:17.555Z,99489.73
2023-05-25T00:30:45.061Z,99484.84
2023-05-25T00:33:13.382Z,99482.35
2023-05-25T00:35:44.946Z,99482.08
2023-05-25T00:38:17.212Z,99477.73
2023-05-25T00:40:45.808Z,99482.08
2023-05-25T00:43:13.717Z,99478.96
2023-05-25T00:45:41.542Z,99479.41
2023-05-25T00:48:10.086Z,99475.97
2023-05-25T00:50:42.345Z,99475.67
2023-05-25T00:53:11.093Z,99474.48
2023-05-25T00:55:56.132Z,99472.22
2023-05-25T00:58:25.190Z,99473.80
2023-05-25T01:00:54.408Z,99476.65
2023-05-25T01:03:22.657Z,99477.38
2023-05-25T01:05:50.969Z,99481.08
2023-05-25T01:08:18.373Z,99483.55
2023-05-25T01:10:46.232Z,99487.98
2023-05-25T01:13:14.179Z,99490.13
2023-05-25T01:15:41.872Z,99491.04
2023-05-25T01:18:09.715Z,99493.23
2023-05-25T01:20:37.301Z,99490.84
2023-05-25T01:23:12.542Z,99487.61
2023-05-25T01:25:51.931Z,99489.52
2023-05-25T01:28:23.234Z,99484.47
2023-05-25T01:30:50.789Z,99474.78
2023-05-25T01:33:18.903Z,99475.98
2023-05-25T01:35:47.476Z,99473.41
2023-05-25T01:38:14.934Z,99470.63
2023-05-25T01:40:42.592Z,99475.73
2023-05-25T01:43:10.051Z,99480.10
2023-05-25T01:45:37.536Z,99484.08
2023-05-25T01:48:20.049Z,99485.22
2023-05-25T01:50:47.589Z,99489.85
2023-05-25T01:53:28.669Z,99491.55
2023-05-25T01:56:02.596Z,99489.45
2023-05-25T01:58:36.048Z,99491.48
2023-05-25T02:01:04.106Z,99493.33
2023-05-25T02:03:31.730Z,99496.61
2023-05-25T02:05:59.347Z,99493.98
2023-05-25T02:08:27.171Z,99497.52
2023-05-25T02:10:54.633Z,99496.55
2023-05-25T02:13:22.308Z,99496.02
2023-05-25T02:15:50.100Z,99494.81
2023-05-25T02:18:19.906Z,99494.05
2023-05-25T02:20:47.768Z,99497.77
2023-05-25T02:23:15.293Z,99501.42
2023-05-25T02:25:43.273Z,99499.39
2023-05-25T02:28:11.093Z,99500.80
2023-05-25T02:30:39.270Z,99496.85
2023-05-25T02:33:07.205Z,99496.96
2023-05-25T02:35:36.399Z,99496.24
2023-05-25T02:38:04.021Z,99497.75
2023-05-25T02:40:31.602Z,99498.70
2023-05-25T02:42:59.260Z,99500.73
2023-05-25T02:45:26.932Z,99503.14
2023-05-25T02:47:54.543Z,99502.95
2023-05-25T02:50:22.804Z,99500.27
2023-05-25T02:52:52.264Z,99505.42
2023-05-25T02:55:19.898Z,99508.92
2023-05-25T02:57:47.700Z,99505.91
2023-05-25T03:00:26.050Z,99509.98
2023-05-25T03:02:54.257Z,99513.37
2023-05-25T03:05:22.546Z,99514.11
2023-05-25T03:07:50.193Z,99514.79
2023-05-25T03:10:17.755Z,99509.39
2023-05-25T03:12:45.329Z,99510.98
2023-05-25T03:15:14.150Z,99509.07
2023-05-25T03:17:42.247Z,99507.79
2023-05-25T03:20:11.871Z,99507.55
2023-05-25T03:22:41.888Z,99505.08
2023-05-25T03:25:13.497Z,99511.38
2023-05-25T03:27:41.165Z,99507.63
2023-05-25T03:30:09.305Z,99508.41
2023-05-25T03:32:36.973Z,99508.64
2023-05-25T03:35:08.508Z,99515.05
2023-05-25T03:37:35.949Z,99518.56
2023-05-25T03:40:05.011Z,99521.36
2023-05-25T03:42:32.815Z,99517.31
2023-05-25T03:45:00.792Z,99518.34
2023-05-25T03:47:28.391Z,99513.74
2023-05-25T03:49:55.823Z,99510.86
2023-05-25T03:52:23.330Z,99509.20
2023-05-25T03:54:50.749Z,99507.38
2023-05-25T03:57:18.253Z,99506.73
2023-05-25T03:59:45.918Z,99509.10
2023-05-25T04:02:13.608Z,99508.45
2023-05-25T04:04:42.125Z,99506.02
2023-05-25T04:07:09.578Z,99507.83
2023-05-25T04:09:37.001Z,99508.90
2023-05-25T04:12:04.956Z,99513.30
2023-05-25T04:14:33.053Z,99521.48
2023-05-25T04:17:00.601Z,99523.38
2023-05-25T04:19:28.004Z,99524.98
2023-05-25T04:21:55.836Z,99524.33
2023-05-25T04:24:23.503Z,99526.75
2023-05-25T04:26:50.971Z,99530.44
2023-05-25T04:29:18.637Z,99533.23
2023-05-25T04:32:17.996Z,99533.13
2023-05-25T04:35:05.964Z,99531.70
2023-05-25T04:37:55.009Z,99529.88
2023-05-25T04:40:28.177Z,99531.38
2023-05-25T04:42:58.931Z,99530.20
2023-05-25T04:45:26.491Z,99527.68
2023-05-25T04:47:58.469Z,99526.23
2023-05-25T04:50:28.829Z,99524.66
2023-05-25T04:52:56.427Z,99527.72
2023-05-25T04:55:24.149Z,99521.98
2023-05-25T04:57:53.507Z,99527.48
2023-05-25T05:00:25.273Z,99524.37
2023-05-25T05:02:56.742Z,99522.21
2023-05-25T05:05:24.725Z,99523.64
2023-05-25T05:07:56.316Z,99521.67
2023-05-25T05:10:27.058Z,99528.09
2023-05-25T05:13:00.345Z,99531.02
2023-05-25T05:15:30.137Z,99531.94
2023-05-25T05:18:02.557Z,99528.66
2023-05-25T05:20:33.081Z,99529.59
2023-05-25T05:23:03.956Z,99528.20
2023-05-25T05:25:40.678Z,99530.17
2023-05-25T05:28:08.373Z,99533.86
2023-05-25T05:30:43.768Z,99536.88
2023-05-25T05:33:14.962Z,99539.27
2023-05-25T05:36:00.186Z,99536.92
2023-05-25T05:38:28.469Z,99538.91
2023-05-25T05:40:56.238Z,99533.86
2023-05-25T05:43:34.117Z,99533.64
2023-05-25T05:46:01.797Z,99535.78
2023-05-25T05:48:32.995Z,99537.73
2023-05-25T05:51:07.142Z,99536.63
2023-05-25T05:53:55.218Z,99537.33
2023-05-25T05:56:25.601Z,99541.38
2023-05-25T05:58:55.142Z,99542.89
2023-05-25T06:01:22.755Z,99544.48
2023-05-25T06:03:50.900Z,99543.85
2023-05-25T06:06:24.940Z,99546.38
2023-05-25T06:09:06.726Z,99543.71
2023-05-25T06:11:37.253Z,99542.88
2023-05-25T06:14:04.867Z,99544.92
2023-05-25T06:16:38.075Z,99545.20
2023-05-25T06:19:06.309Z,99546.88
2023-05-25T06:21:37.837Z,99545.83
2023-05-25T06:24:06.215Z,99543.69
2023-05-25T06:26:34.775Z,99541.62
2023-05-25T06:29:02.692Z,99541.38
2023-05-25T06:31:33.215Z,99542.23
2023-05-25T06:34:01.171Z,99539.75
2023-05-25T06:36:32.122Z,99543.21
2023-05-25T06:39:00.227Z,99543.91
2023-05-25T06:41:32.796Z,99543.58
2023-05-25T06:44:00.373Z,99544.14
2023-05-25T06:46:33.228Z,99545.91
2023-05-25T06:49:04.178Z,99548.13
2023-05-25T06:51:34.502Z,99547.16
2023-05-25T06:54:06.093Z,99546.79
2023-05-25T06:56:33.559Z,99548.29
2023-05-25T06:59:01.175Z,99548.30
2023-05-25T07:01:28.919Z,99544.52
2023-05-25T07:03:56.367Z,99545.16
2023-05-25T07:06:23.837Z,99547.58
2023-05-25T07:08:57.262Z,99550.48
2023-05-25T07:11:26.874Z,99550.30
2023-05-25T07:14:02.738Z,99545.96
2023-05-25T07:16:33.144Z,99541.54
2023-05-25T07:19:06.941Z,99545.42
2023-05-25T07:21:34.560Z,99544.90
2023-05-25T07:24:02.301Z,99540.90
2023-05-25T07:26:34.736Z,99544.20
2023-05-25T07:29:09.675Z,99546.80
2023-05-25T07:31:39.865Z,99548.16
2023-05-25T07:34:07.428Z,99549.90
2023-05-25T07:36:40.776Z,99552.23
2023-05-25T07:39:12.278Z,99551.03
2023-05-25T07:41:45.017Z,99549.27
2023-05-25T07:44:12.765Z,99545.76
2023-05-25T07:46:43.303Z,99543.82
2023-05-25T07:49:16.475Z,99538.92
2023-05-25T07:51:47.998Z,99539.19
2023-05-25T07:54:17.459Z,99536.91
2023-05-25T07:56:46.596Z,99535.08
2023-05-25T07:59:14.550Z,99536.34
2023-05-25T08:01:41.985Z,99531.77
2023-05-25T08:04:09.578Z,99535.87
2023-05-25T08:06:40.481Z,99535.19
2023-05-25T08:09:08.279Z,99533.86
2023-05-25T08:11:35.915Z,99534.09
2023-05-25T08:14:03.496Z,99532.71
2023-05-25T08:16:31.125Z,99526.36
2023-05-25T08:19:00.049Z,99526.50
2023-05-25T08:21:27.610Z,99526.71
2023-05-25T08:24:10.673Z,99529.58
2023-05-25T08:26:52.998Z,99530.92
2023-05-25T08:29:21.614Z,99529.32
2023-05-25T08:31:49.955Z,99523.62
2023-05-25T08:34:20.437Z,99524.77
2023-05-25T08:36:50.632Z,99528.10
2023-05-25T08:39:21.246Z,99528.43
2023-05-25T08:41:55.890Z,99529.05
2023-05-25T08:44:23.457Z,99530.35
2023-05-25T08:46:54.072Z,99529.23
2023-05-25T08:49:23.665Z,99525.45
2023-05-25T08:51:53.349Z,99525.22
2023-05-25T08:54:45.388Z,99520.71
2023-05-25T08:57:28.462Z,99519.48
2023-05-25T09:03:21.066Z,99515.80
2023-05-25T09:05:48.867Z,99516.90
2023-05-25T09:08:23.167Z,99510.00
2023-05-25T09:10:56.127Z,99509.98
2023-05-25T09:13:24.482Z,99512.93
2023-05-25T09:15:56.162Z,99509.99
2023-05-25T09:18:27.206Z,99509.29
2023-05-25T09:20:56.911Z,99500.81
2023-05-25T09:23:26.177Z,99501.67
2023-05-25T09:25:56.863Z,99498.24
2023-05-25T09:28:27.559Z,99499.10
2023-05-25T09:30:55.707Z,99498.88
2023-05-25T09:33:27.699Z,99495.92
2023-05-25T09:35:56.275Z,99493.54
2023-05-25T09:38:23.955Z,99494.23
2023-05-25T09:41:04.627Z,99493.73
2023-05-25T09:46:11.523Z,99490.64
2023-05-25T09:48:39.105Z,99485.77
2023-05-25T09:51:10.796Z,99486.02
2023-05-25T09:56:19.465Z,99481.38
2023-05-25T09:58:54.030Z,99473.80
2023-05-25T10:01:21.532Z,99468.00
2023-05-25T10:04:02.902Z,99468.44
2023-05-25T10:06:33.550Z,99471.47
2023-05-25T10:09:01.688Z,99469.58
2023-05-25T10:11:30.608Z,99465.91
2023-05-25T10:14:00.422Z,99457.20
2023-05-25T10:16:39.748Z,99457.98
2023-05-25T10:19:18.440Z,99454.02
2023-05-25T10:22:17.562Z,99456.54
2023-05-25T10:24:57.824Z,99453.55
2023-05-25T10:27:28.214Z,99453.27
2023-05-25T10:30:05.437Z,99456.09
2023-05-25T10:32:33.887Z,99455.44
2023-05-25T10:35:01.421Z,99454.48
2023-05-25T10:37:28.848Z,99450.13
2023-05-25T10:39:57.193Z,99446.95
2023-05-25T10:42:26.501Z,99450.25
2023-05-25T10:44:58.583Z,99456.66
2023-05-25T10:47:32.073Z,99461.16
2023-05-25T10:50:03.257Z,99461.58
2023-05-25T10:52:33.429Z,99461.07
2023-05-25T10:55:05.657Z,99457.88
2023-05-25T10:57:33.274Z,99457.52
2023-05-25T11:00:09.196Z,99454.83
2023-05-25T11:02:52.573Z,99455.57
2023-05-25T11:05:26.188Z,99453.08
2023-05-25T11:07:57.685Z,99453.80
2023-05-25T11:10:46.577Z,99451.76
2023-05-25T11:13:35.581Z,99454.50
2023-05-25T11:16:36.606Z,99450.38
2023-05-25T11:19:04.385Z,99446.63
2023-05-25T11:21:35.966Z,99450.05
2023-05-25T11:24:10.725Z,99449.52
2023-05-25T11:26:44.997Z,99450.73
2023-05-25T11:29:19.783Z,99450.60
2023-05-25T11:31:54.192Z,99449.45
2023-05-25T11:34:30.059Z,99448.95
2023-05-25T11:37:04.232Z,99452.71
2023-05-25T11:39:36.080Z,99456.05
2023-05-25T11:42:09.307Z,99456.23
2023-05-25T11:44:36.981Z,99455.55
2023-05-25T11:47:26.089Z,99451.98
2023-05-25T11:50:14.423Z,99449.24
2023-05-25T11:52:41.918Z,99451.62
2023-05-25T11:55:15.625Z,99452.33
2023-05-25T11:57:46.272Z,99453.96
2023-05-25T12:03:02.648Z,99445.30
2023-05-25T12:05:38.224Z,99441.64
2023-05-25T12:08:08.914Z,99440.02
2023-05-25T12:10:56.768Z,99444.80
2023-05-25T12:13:31.589Z,99446.22
2023-05-25T12:16:05.533Z,99441.80
2023-05-25T12:18:36.163Z,99439.48
2023-05-25T12:21:13.423Z,99434.69
2023-05-25T12:23:41.004Z,99432.15
2023-05-25T12:26:19.104Z,99432.59
2023-05-25T12:28:59.934Z,99429.23
2023-05-25T12:31:34.268Z,99430.11
2023-05-25T12:34:13.922Z,99429.81
2023-05-25T12:36:43.210Z,99430.02
2023-05-25T12:39:36.956Z,99429.20
2023-05-25T12:42:09.456Z,99429.08
2023-05-25T12:44:37.483Z,99424.60
2023-05-25T12:47:14.305Z,99430.59
2023-05-25T12:49:46.837Z,99431.73
2023-05-25T12:52:40.770Z,99429.55
2023-05-25T12:55:30.441Z,99428.30
2023-05-25T12:58:04.882Z,99422.75
2023-05-25T13:00:38.041Z,99422.15
2023-05-25T13:03:21.336Z,99418.14
2023-05-25T13:05:59.722Z,99418.71
2023-05-25T13:08:27.272Z,99418.48
2023-05-25T13:10:57.770Z,99420.69
2023-05-25T13:13:27.374Z,99418.85
2023-05-25T13:16:04.139Z,99418.98
2023-05-25T13:18:34.704Z,99419.23
2023-05-25T13:21:06.218Z,99423.04
2023-05-25T13:23:33.948Z,99425.04
2023-05-25T13:26:04.003Z,99425.39
2023-05-25T13:28:32.214Z,99429.09
2023-05-25T13:31:03.234Z,99434.28
2023-05-25T13:33:30.851Z,99433.38
2023-05-25T13:35:58.924Z,99432.88
2023-05-25T13:38:44.269Z,99432.44
2023-05-25T13:41:14.887Z,99434.08
2023-05-25T13:43:42.484Z,99436.65
2023-05-25T13:46:29.991Z,99435.52
2023-05-25T13:49:01.934Z,99430.48
2023-05-25T13:51:35.489Z,99425.99
2023-05-25T13:54:06.902Z,99421.99
2023-05-25T13:56:37.285Z,99419.55
2023-05-25T13:59:07.570Z,99415.84
2023-05-25T14:01:38.490Z,99415.91
2023-05-25T14:04:10.406Z,99409.40
2023-05-25T14:06:38.045Z,99408.66
2023-05-25T14:09:05.602Z,99409.80
2023-05-25T14:11:39.670Z,99411.05
2023-05-25T14:14:31.607Z,99416.34
2023-05-25T14:17:01.270Z,99420.72
2023-05-25T14:19:29.387Z,99425.05
2023-05-25T14:22:13.187Z,99423.76
2023-05-25T14:24:45.177Z,99422.44
2023-05-25T14:27:24.120Z,99424.05
2023-05-25T14:29:51.721Z,99424.31
2023-05-25T14:32:23.002Z,99422.48
2023-05-25T14:34:50.508Z,99423.74
2023-05-25T14:37:26.323Z,99426.15
2023-05-25T14:40:10.691Z,99422.55
2023-05-25T14:42:38.592Z,99422.62
2023-05-25T14:45:37.850Z,99421.64
2023-05-25T14:48:16.440Z,99428.80
2023-05-25T14:50:48.158Z,99423.64
2023-05-25T14:53:22.840Z,99420.36
2023-05-25T14:55:54.118Z,99423.55
2023-05-25T14:58:29.396Z,99427.25
2023-05-25T15:00:57.100Z,99426.07
2023-05-25T15:03:24.598Z,99428.36
2023-05-25T15:05:52.107Z,99429.61
2023-05-25T15:08:29.948Z,99428.88
2023-05-25T15:11:08.004Z,99435.70
2023-05-25T15:13:44.829Z,99437.64
2023-05-25T15:16:21.063Z,99436.54
2023-05-25T15:18:48.573Z,99438.25
2023-05-25T15:21:16.096Z,99442.73
2023-05-25T15:23:50.457Z,99443.70
2023-05-25T15:26:18.281Z,99446.30
2023-05-25T15:28:45.821Z,99448.61
2023-05-25T15:31:17.119Z,99447.42
2023-05-25T15:33:59.144Z,99442.63
2023-05-25T15:36:27.091Z,99442.36
2023-05-25T15:39:18.995Z,99442.55
2023-05-25T15:41:47.266Z,99443.86
2023-05-25T15:44:17.692Z,99449.71
2023-05-25T15:46:52.026Z,99446.12
2023-05-25T15:49:20.568Z,99447.11
2023-05-25T15:51:57.131Z,99445.90
2023-05-25T15:54:51.591Z,99448.80
2023-05-25T15:57:19.322Z,99442.56
2023-05-25T15:59:55.032Z,99443.13
2023-05-25T16:02:23.417Z,99444.38
2023-05-25T16:04:51.124Z,99446.98
2023-05-25T16:07:18.593Z,99446.09
2023-05-25T16:09:49.863Z,99445.14
2023-05-25T16:12:31.001Z,99441.50
2023-05-25T16:15:03.163Z,99433.83
2023-05-25T16:17:33.373Z,99435.02
2023-05-25T16:20:04.472Z,99430.06
2023-05-25T16:22:36.043Z,99432.29
2023-05-25T16:25:10.057Z,99431.58
2023-05-25T16:27:40.622Z,99434.14
2023-05-25T16:30:14.399Z,99439.25
2023-05-25T16:32:51.142Z,99437.17
2023-05-25T16:35:20.545Z,99435.17
2023-05-25T16:37:49.348Z,99429.84
2023-05-25T16:40:17.858Z,99428.91
2023-05-25T16:42:51.707Z,99430.74
2023-05-25T16:45:24.336Z,99427.44
2023-05-25T16:48:03.092Z,99430.17
2023-05-25T16:50:30.800Z,99430.39
2023-05-25T16:52:58.239Z,99428.26
2023-05-25T16:55:25.990Z,99430.21
2023-05-25T16:57:53.378Z,99429.02
2023-05-25T17:00:21.171Z,99430.77
2023-05-25T17:02:48.862Z,99433.43
2023-05-25T17:05:16.665Z,99438.23
2023-05-25T17:07:49.342Z,99440.09
2023-05-25T17:10:17.079Z,99440.95
2023-05-25T17:12:47.579Z,99439.68
2023-05-25T17:15:16.791Z,99436.85
2023-05-25T17:17:52.675Z,99435.33
2023-05-25T17:20:21.727Z,99432.55
2023-05-25T17:23:12.421Z,99438.20
2023-05-25T17:25:43.294Z,99437.96
2023-05-25T17:28:13.666Z,99437.30
2023-05-25T17:30:41.458Z,99440.63
2023-05-25T17:33:12.606Z,99440.88
2023-05-25T17:35:44.668Z,99445.10
2023-05-25T17:38:15.777Z,99444.67
2023-05-25T17:40:50.322Z,99445.13
2023-05-25T17:43:29.170Z,99445.05
2023-05-25T17:45:56.896Z,99443.70
2023-05-25T17:48:26.376Z,99442.85
2023-05-25T17:51:03.755Z,99443.73
2023-05-25T17:53:43.290Z,99442.25
2023-05-25T17:58:52.215Z,99438.05
2023-05-25T18:01:19.921Z,99440.04
2023-05-25T18:03:49.560Z,99442.11
2023-05-25T18:06:20.938Z,99450.92
2023-05-25T18:08:48.447Z,99452.66
2023-05-25T18:11:15.843Z,99456.39
2023-05-25T18:13:43.428Z,99453.20
2023-05-25T18:16:10.942Z,99452.35
2023-05-25T18:18:38.357Z,99455.55
2023-05-25T18:21:06.331Z,99455.39
2023-05-25T18:23:33.771Z,99459.60
2023-05-25T18:26:01.377Z,99462.69
2023-05-25T18:28:31.157Z,99467.02
2023-05-25T18:30:59.084Z,99465.16
2023-05-25T18:33:26.579Z,99468.38
2023-05-25T18:35:54.382Z,99468.57
2023-05-25T18:38:22.051Z,99471.21
2023-05-25T18:40:49.728Z,99471.80
2023-05-25T18:43:17.119Z,99474.20
2023-05-25T18:45:44.676Z,99475.80
2023-05-25T18:48:12.405Z,99473.35
2023-05-25T18:50:42.136Z,99471.58
2023-05-25T18:53:10.952Z,99469.27
2023-05-25T18:55:38.471Z,99470.90
2023-05-25T18:58:06.672Z,99471.45
2023-05-25T19:00:34.179Z,99475.89
2023-05-25T19:03:01.763Z,99476.23
2023-05-25T19:05:29.469Z,99474.62
2023-05-25T19:07:59.486Z,99473.54
2023-05-25T19:10:27.612Z,99474.75
2023-05-25T19:12:55.146Z,99475.45
2023-05-25T19:15:22.700Z,99476.98
2023-05-25T19:17:50.192Z,99474.10
2023-05-25T19:20:17.721Z,99473.85
2023-05-25T19:22:45.395Z,99472.58
2023-05-25T19:25:13.089Z,99472.59
2023-05-25T19:27:40.559Z,99472.73
2023-05-25T19:30:08.572Z,99470.75
2023-05-25T19:32:36.208Z,99468.21
2023-05-25T19:35:03.843Z,99464.85
2023-05-25T19:37:31.217Z,99464.16
2023-05-25T19:39:58.657Z,99465.77
2023-05-25T19:42:26.261Z,99467.93
2023-05-25T19:44:53.794Z,99466.74
2023-05-25T19:47:22.301Z,99466.64
2023-05-25T19:49:49.671Z,99469.38
2023-05-25T19:52:18.053Z,99472.78
2023-05-25T19:54:45.449Z,99473.04
2023-05-25T19:57:12.888Z,99471.83
2023-05-25T19:59:40.719Z,99468.92
2023-05-25T20:02:08.157Z,99471.83
2023-05-25T20:04:35.725Z,99476.02
2023-05-25T20:07:03.324Z,99476.83
2023-05-25T20:09:31.048Z,99481.44
2023-05-25T20:11:59.089Z,99483.86
2023-05-25T20:14:26.675Z,99480.59
2023-05-25T20:16:57.005Z,99487.46
2023-05-25T20:19:24.767Z,99483.23
2023-05-25T20:21:52.179Z,99481.86
2023-05-25T20:24:19.646Z,99483.66
2023-05-25T20:26:47.113Z,99485.80
2023-05-25T20:29:14.766Z,99486.46
2023-05-25T20:31:42.162Z,99486.23
2023-05-25T20:34:09.601Z,99484.24
2023-05-25T20:36:37.575Z,99485.90
2023-05-25T20:39:05.135Z,99485.45
2023-05-25T20:41:32.546Z,99483.04
2023-05-25T20:44:00.043Z,99478.98
2023-05-25T20:46:27.479Z,99476.02
2023-05-25T20:48:57.246Z,99474.23
2023-05-25T20:51:24.653Z,99476.92
2023-05-25T20:53:52.086Z,99475.17
2023-05-25T20:56:19.536Z,99475.56
2023-05-25T20:58:47.262Z,99474.02
2023-05-25T21:01:15.209Z,99471.59
2023-05-25T21:03:42.797Z,99468.95
2023-05-25T21:06:10.789Z,99467.77
2023-05-25T21:08:38.386Z,99466.27
2023-05-25T21:11:05.849Z,99468.55
2023-05-25T21:13:33.514Z,99467.28
2023-05-25T21:16:01.550Z,99466.67
2023-05-25T21:18:28.985Z,99465.36
2023-05-25T21:20:56.628Z,99466.14
2023-05-25T21:23:25.517Z,99465.29
2023-05-25T21:25:52.906Z,99466.16
2023-05-25T21:28:20.407Z,99466.89
2023-05-25T21:30:47.927Z,99465.52
2023-05-25T21:33:15.671Z,99465.86
2023-05-25T21:35:43.308Z,99466.98
2023-05-25T21:38:11.052Z,99465.95
2023-05-25T21:40:38.677Z,99465.48
2023-05-25T21:43:06.862Z,99462.69
2023-05-25T21:45:34.252Z,99458.30
2023-05-25T21:48:03.692Z,99458.05
2023-05-25T21:50:31.502Z,99458.48
2023-05-25T21:52:59.065Z,99459.88
2023-05-25T21:55:26.548Z,99460.48
2023-05-25T21:57:54.188Z,99460.23
2023-05-25T22:00:23.601Z,99463.23
2023-05-25T22:02:51.688Z,99461.05
2023-05-25T22:05:19.472Z,99460.72
2023-05-25T22:07:46.894Z,99462.84
2023-05-25T22:10:14.489Z,99459.45
2023-05-25T22:12:42.052Z,99457.48
2023-05-25T22:15:09.807Z,99458.66
2023-05-25T22:17:37.444Z,99456.77
2023-05-25T22:20:07.841Z,99454.34
2023-05-25T22:22:37.564Z,99452.46
2023-05-25T22:25:05.576Z,99451.48
2023-05-25T22:27:33.377Z,99450.64
2023-05-25T22:30:01.035Z,99449.41
2023-05-25T22:32:28.542Z,99452.63
2023-05-25T22:34:56.268Z,99450.49
2023-05-25T22:37:23.757Z,99446.98
2023-05-25T22:39:51.300Z,99448.85
2023-05-25T22:42:18.862Z,99450.63
2023-05-25T22:44:46.260Z,99453.16
2023-05-25T22:47:13.676Z,99455.36
2023-05-25T22:49:43.844Z,99456.80
2023-05-25T22:52:12.082Z,99456.08
2023-05-25T22:54:39.888Z,99454.36
2023-05-25T22:57:09.171Z,99452.60
2023-05-25T22:59:36.662Z,99450.80
2023-05-25T23:02:04.639Z,99454.92
2023-05-25T23:04:32.317Z,99458.67
2023-05-25T23:06:59.778Z,99457.26
2023-05-25T23:09:27.823Z,99456.23
2023-05-25T23:11:55.274Z,99454.70
2023-05-25T23:14:22.738Z,99450.70
2023-05-25T23:16:50.219Z,99451.54
2023-05-25T23:19:18.166Z,99447.44
2023-05-25T23:21:46.361Z,99447.05
2023-05-25T23:24:13.818Z,99445.81
2023-05-25T23:26:41.323Z,99446.15
2023-05-25T23:29:08.834Z,99445.40
2023-05-25T23:31:36.777Z,99449.44
2023-05-25T23:34:04.335Z,99445.87
2023-05-25T23:36:33.999Z,99446.91
2023-05-25T23:39:02.702Z,99444.05
2023-05-25T23:41:30.263Z,99441.31
2023-05-25T23:43:58.045Z,99439.21
2023-05-25T23:46:25.751Z,99436.92
2023-05-25T23:48:53.403Z,99439.40
2023-05-25T23:51:20.880Z,99440.80
2023-05-25T23:53:48.301Z,99438.61
2023-05-25T23:56:15.716Z,99437.52
2023-05-25T23:58:43.625Z,99441.40
